createdAt,value
2023-01-09T00:01:21.856Z,1.37
2023-01-09T00:03:49.829Z,1.93
2023-01-09T00:06:17.926Z,2.23
2023-01-09T00:08:47.118Z,2.87
2023-01-09T00:11:15.049Z,1.47
2023-01-09T00:13:42.962Z,3.43
2023-01-09T00:16:11.043Z,1.40
2023-01-09T00:18:38.941Z,2.93
2023-01-09T00:21:08.597Z,0.83
2023-01-09T00:23:36.585Z,1.37
2023-01-09T00:26:08.403Z,1.57
2023-01-09T00:28:36.933Z,2.63
2023-01-09T00:31:06.995Z,3.00
2023-01-09T00:33:37.203Z,0.90
2023-01-09T00:36:05.312Z,1.60
2023-01-09T00:38:33.201Z,1.13
2023-01-09T00:41:03.285Z,1.43
2023-01-09T00:43:36.588Z,0.70
2023-01-09T00:46:07.719Z,0.50
2023-01-09T00:48:38.556Z,2.30
2023-01-09T00:51:08.184Z,0.67
2023-01-09T00:53:38.487Z,0.43
2023-01-09T00:56:09.617Z,0.60
2023-01-09T00:58:39.145Z,1.20
2023-01-09T01:01:07.370Z,0.83
2023-01-09T01:03:35.410Z,0.30
2023-01-09T01:06:25.840Z,0.63
2023-01-09T01:08:55.753Z,0.30
2023-01-09T01:11:24.431Z,0.20
2023-01-09T01:13:54.208Z,1.10
2023-01-09T01:16:22.097Z,0.20
2023-01-09T01:18:50.523Z,0.30
2023-01-09T01:21:18.762Z,0.30
2023-01-09T01:23:46.701Z,0.60
2023-01-09T01:26:16.391Z,0.40
2023-01-09T01:28:45.453Z,0.30
2023-01-09T01:31:18.988Z,0.93
2023-01-09T01:33:47.608Z,0.53
2023-01-09T01:36:17.426Z,0.77
2023-01-09T01:38:46.890Z,0.77
2023-01-09T01:41:14.892Z,0.30
2023-01-09T01:43:53.775Z,0.20
2023-01-09T01:46:23.436Z,0.53
2023-01-09T01:48:55.078Z,0.67
2023-01-09T01:51:25.323Z,0.23
2023-01-09T01:53:56.267Z,0.30
2023-01-09T01:56:28.022Z,0.20
2023-01-09T01:59:02.252Z,0.20
2023-01-09T02:01:33.119Z,0.20
2023-01-09T02:04:03.759Z,1.37
2023-01-09T02:06:34.890Z,0.40
2023-01-09T02:09:04.351Z,0.30
2023-01-09T02:11:32.560Z,0.73
2023-01-09T02:14:01.649Z,0.47
2023-01-09T02:16:47.706Z,0.20
2023-01-09T02:19:33.181Z,0.20
2023-01-09T02:22:12.714Z,0.30
2023-01-09T02:25:10.097Z,1.00
2023-01-09T02:28:06.827Z,0.43
2023-01-09T02:30:45.236Z,0.40
2023-01-09T02:33:30.343Z,0.57
2023-01-09T02:36:21.287Z,0.27
2023-01-09T02:39:00.769Z,0.37
2023-01-09T02:41:36.042Z,0.40
2023-01-09T02:44:15.860Z,0.70
2023-01-09T02:46:45.240Z,0.83
2023-01-09T02:49:17.177Z,0.57
2023-01-09T02:51:53.357Z,0.97
2023-01-09T02:54:30.519Z,1.57
2023-01-09T02:57:12.975Z,1.53
2023-01-09T02:59:54.850Z,0.87
2023-01-09T03:02:40.380Z,2.67
2023-01-09T03:05:15.751Z,1.37
2023-01-09T03:07:49.301Z,3.30
2023-01-09T03:10:21.829Z,2.67
2023-01-09T03:12:54.557Z,4.50
2023-01-09T03:15:27.014Z,3.23
2023-01-09T03:17:58.305Z,4.10
2023-01-09T03:20:28.678Z,2.60
2023-01-09T03:22:58.978Z,1.93
2023-01-09T03:25:28.396Z,3.23
2023-01-09T03:27:58.904Z,3.60
2023-01-09T03:30:28.209Z,2.00
2023-01-09T03:32:58.084Z,3.90
2023-01-09T03:35:26.073Z,1.73
2023-01-09T03:37:54.014Z,2.27
2023-01-09T03:40:22.426Z,2.00
2023-01-09T03:42:50.390Z,5.53
2023-01-09T03:45:18.267Z,2.77
2023-01-09T03:47:46.110Z,2.03
2023-01-09T03:50:15.391Z,1.73
2023-01-09T03:52:43.233Z,2.10
2023-01-09T03:55:11.326Z,3.07
2023-01-09T03:57:39.123Z,2.23
2023-01-09T04:00:09.178Z,1.33
2023-01-09T04:02:43.261Z,2.33
2023-01-09T04:05:11.710Z,3.63
2023-01-09T04:07:40.868Z,3.30
2023-01-09T04:10:09.748Z,2.73
2023-01-09T04:12:37.525Z,2.60
2023-01-09T04:15:05.967Z,1.77
2023-01-09T04:17:33.756Z,3.20
2023-01-09T04:20:01.637Z,4.07
2023-01-09T04:22:31.253Z,3.23
2023-01-09T04:25:00.398Z,3.43
2023-01-09T04:27:28.263Z,3.20
2023-01-09T04:29:56.081Z,3.60
2023-01-09T04:32:23.900Z,3.80
2023-01-09T04:34:51.646Z,4.20
2023-01-09T04:37:19.493Z,3.00
2023-01-09T04:39:47.616Z,3.00
2023-01-09T04:42:16.841Z,6.20
2023-01-09T04:44:44.684Z,1.73
2023-01-09T04:47:13.545Z,3.50
2023-01-09T04:49:41.385Z,4.17
2023-01-09T04:52:09.215Z,4.20
2023-01-09T04:54:36.984Z,8.10
2023-01-09T04:57:04.936Z,3.30
2023-01-09T04:59:34.196Z,3.53
2023-01-09T05:02:02.237Z,5.90
2023-01-09T05:04:30.137Z,3.13
2023-01-09T05:06:57.895Z,2.63
2023-01-09T05:09:25.696Z,4.93
2023-01-09T05:11:53.734Z,3.40
2023-01-09T05:14:21.719Z,5.73
2023-01-09T05:16:50.994Z,4.00
2023-01-09T05:19:19.064Z,3.53
2023-01-09T05:21:47.450Z,6.73
2023-01-09T05:24:15.325Z,6.30
2023-01-09T05:26:43.119Z,3.60
2023-01-09T05:29:11.753Z,6.63
2023-01-09T05:31:39.540Z,5.07
2023-01-09T05:34:08.793Z,7.40
2023-01-09T05:36:37.027Z,7.77
2023-01-09T05:39:05.849Z,6.13
2023-01-09T05:41:33.669Z,4.77
2023-01-09T05:44:01.776Z,3.83
2023-01-09T05:46:29.602Z,5.17
2023-01-09T05:48:57.595Z,6.33
2023-01-09T05:51:26.806Z,4.27
2023-01-09T05:53:54.675Z,4.67
2023-01-09T05:56:22.560Z,5.90
2023-01-09T05:58:50.479Z,7.90
2023-01-09T06:01:18.281Z,3.43
2023-01-09T06:03:46.153Z,4.70
2023-01-09T06:06:13.921Z,3.40
2023-01-09T06:08:43.122Z,7.00
2023-01-09T06:11:10.955Z,3.37
2023-01-09T06:13:38.799Z,4.63
2023-01-09T06:16:07.775Z,6.37
2023-01-09T06:18:35.663Z,5.80
2023-01-09T06:21:03.484Z,5.03
2023-01-09T06:23:31.364Z,4.17
2023-01-09T06:26:00.597Z,6.57
2023-01-09T06:28:28.425Z,5.97
2023-01-09T06:30:56.339Z,6.43
2023-01-09T06:33:24.239Z,2.47
2023-01-09T06:35:52.156Z,3.73
2023-01-09T06:38:20.059Z,4.57
2023-01-09T06:40:48.010Z,3.47
2023-01-09T06:43:17.327Z,4.00
2023-01-09T06:45:45.215Z,4.90
2023-01-09T06:48:13.695Z,4.53
2023-01-09T06:50:41.896Z,4.13
2023-01-09T06:53:10.624Z,3.97
2023-01-09T06:55:38.615Z,3.83
2023-01-09T06:58:06.594Z,3.10
2023-01-09T07:00:36.190Z,3.33
2023-01-09T07:03:04.487Z,2.40
2023-01-09T07:05:35.616Z,3.83
2023-01-09T07:08:03.547Z,5.40
2023-01-09T07:10:31.446Z,1.73
2023-01-09T07:12:59.312Z,2.43
2023-01-09T07:15:27.346Z,7.03
2023-01-09T07:17:56.539Z,7.10
2023-01-09T07:20:24.500Z,3.33
2023-01-09T07:22:52.356Z,4.33
2023-01-09T07:25:20.209Z,4.90
2023-01-09T07:27:48.935Z,3.53
2023-01-09T07:30:17.418Z,2.97
2023-01-09T07:32:45.469Z,2.10
2023-01-09T07:35:14.790Z,6.73
2023-01-09T07:37:42.576Z,3.27
2023-01-09T07:40:11.810Z,5.13
2023-01-09T07:42:39.741Z,5.80
2023-01-09T07:45:09.021Z,2.00
2023-01-09T07:47:37.143Z,2.00
2023-01-09T07:50:05.345Z,5.10
2023-01-09T07:52:34.472Z,4.53
2023-01-09T07:55:02.337Z,3.30
2023-01-09T07:57:30.847Z,4.50
2023-01-09T08:00:00.576Z,4.27
2023-01-09T08:02:28.753Z,4.00
2023-01-09T08:04:56.607Z,2.23
2023-01-09T08:07:24.463Z,4.37
2023-01-09T08:09:53.662Z,1.73
2023-01-09T08:12:21.530Z,3.07
2023-01-09T08:14:49.370Z,5.60
2023-01-09T08:17:17.178Z,3.37
2023-01-09T08:19:45.270Z,8.37
2023-01-09T08:22:13.103Z,3.23
2023-01-09T08:24:40.966Z,2.17
2023-01-09T08:27:10.214Z,2.43
2023-01-09T08:29:38.924Z,2.67
2023-01-09T08:32:06.946Z,2.37
2023-01-09T08:34:34.856Z,3.87
2023-01-09T08:37:02.698Z,3.97
2023-01-09T08:39:30.693Z,3.40
2023-01-09T08:42:16.292Z,4.27
2023-01-09T08:45:02.865Z,5.23
2023-01-09T08:47:33.348Z,5.33
2023-01-09T08:50:01.566Z,2.73
2023-01-09T08:52:30.614Z,2.63
2023-01-09T08:54:58.574Z,4.90
2023-01-09T08:57:26.495Z,1.73
2023-01-09T08:59:55.756Z,5.77
2023-01-09T09:02:23.882Z,2.90
2023-01-09T09:04:53.663Z,5.67
2023-01-09T09:07:26.607Z,4.00
2023-01-09T09:09:54.994Z,1.73
2023-01-09T09:12:23.952Z,3.80
2023-01-09T09:15:09.442Z,4.33
2023-01-09T09:17:38.661Z,6.60
2023-01-09T09:20:07.843Z,4.87
2023-01-09T09:22:35.710Z,3.30
2023-01-09T09:25:04.888Z,3.07
2023-01-09T09:27:33.374Z,2.33
2023-01-09T09:30:01.257Z,3.03
2023-01-09T09:32:29.282Z,2.80
2023-01-09T09:34:58.556Z,2.73
2023-01-09T09:37:26.362Z,3.63
2023-01-09T09:39:54.423Z,3.87
2023-01-09T09:43:05.428Z,3.33
2023-01-09T09:45:44.557Z,2.53
2023-01-09T09:48:27.452Z,2.60
2023-01-09T09:51:19.227Z,4.10
2023-01-09T09:53:52.756Z,3.73
2023-01-09T09:56:24.378Z,3.77
2023-01-09T09:58:55.202Z,3.30
2023-01-09T10:01:26.638Z,4.27
2023-01-09T10:03:58.414Z,5.87
2023-01-09T10:06:30.565Z,3.73
2023-01-09T10:09:04.954Z,3.20
2023-01-09T10:11:40.508Z,3.97
2023-01-09T10:14:19.420Z,4.50
2023-01-09T10:17:04.766Z,3.37
2023-01-09T10:19:42.718Z,5.20
2023-01-09T10:22:25.024Z,3.57
2023-01-09T10:25:13.964Z,6.00
2023-01-09T10:28:03.404Z,3.63
2023-01-09T10:30:38.716Z,3.53
2023-01-09T10:33:24.556Z,4.63
2023-01-09T10:36:26.324Z,4.17
2023-01-09T10:39:00.141Z,3.20
2023-01-09T10:41:32.839Z,5.63
2023-01-09T10:44:06.825Z,3.13
2023-01-09T10:46:40.401Z,6.07
2023-01-09T10:49:13.788Z,4.33
2023-01-09T10:51:47.927Z,4.87
2023-01-09T10:54:20.059Z,3.03
2023-01-09T10:56:55.463Z,3.90
2023-01-09T10:59:23.564Z,3.03
2023-01-09T11:01:51.618Z,8.43
2023-01-09T11:04:27.108Z,5.70
2023-01-09T11:07:00.935Z,2.63
2023-01-09T11:09:50.229Z,6.43
2023-01-09T11:12:26.097Z,4.70
2023-01-09T11:14:54.028Z,2.67
2023-01-09T11:17:26.601Z,5.30
2023-01-09T11:20:06.628Z,2.53
2023-01-09T11:22:44.681Z,3.03
2023-01-09T11:25:16.435Z,5.23
2023-01-09T11:27:44.513Z,2.70
2023-01-09T11:30:23.975Z,3.07
2023-01-09T11:32:51.847Z,6.13
2023-01-09T11:35:23.978Z,5.63
2023-01-09T11:38:02.346Z,4.73
2023-01-09T11:40:36.531Z,5.10
2023-01-09T11:43:12.307Z,3.47
2023-01-09T11:45:56.444Z,4.67
2023-01-09T11:48:34.387Z,2.23
2023-01-09T11:51:03.677Z,5.80
2023-01-09T11:53:46.637Z,4.33
2023-01-09T11:56:17.634Z,4.03
2023-01-09T11:58:45.836Z,3.63
2023-01-09T12:01:34.712Z,6.10
2023-01-09T12:04:24.891Z,3.37
2023-01-09T12:07:07.153Z,4.23
2023-01-09T12:09:42.537Z,2.77
2023-01-09T12:12:25.603Z,4.10
2023-01-09T12:15:10.184Z,4.03
2023-01-09T12:17:51.939Z,2.50
2023-01-09T12:20:34.384Z,5.07
2023-01-09T12:23:19.687Z,3.77
2023-01-09T12:25:59.494Z,4.03
2023-01-09T12:28:45.791Z,4.37
2023-01-09T12:31:30.016Z,3.33
2023-01-09T12:34:08.558Z,4.53
2023-01-09T12:36:45.076Z,3.37
2023-01-09T12:39:26.508Z,4.20
2023-01-09T12:42:08.755Z,3.03
2023-01-09T12:44:52.254Z,5.00
2023-01-09T12:47:39.455Z,5.57
2023-01-09T12:50:24.806Z,2.93
2023-01-09T12:53:06.540Z,5.23
2023-01-09T12:55:38.027Z,3.90
2023-01-09T12:58:13.062Z,3.77
2023-01-09T13:00:46.525Z,5.20
2023-01-09T13:03:21.572Z,6.97
2023-01-09T13:05:53.135Z,7.23
2023-01-09T13:08:26.805Z,2.20
2023-01-09T13:11:03.321Z,6.83
2023-01-09T13:13:44.331Z,5.37
2023-01-09T13:16:17.127Z,7.30
2023-01-09T13:18:48.911Z,5.97
2023-01-09T13:21:17.868Z,5.30
2023-01-09T13:23:52.439Z,5.43
2023-01-09T13:26:24.610Z,5.00
2023-01-09T13:28:57.104Z,2.70
2023-01-09T13:31:40.562Z,4.30
2023-01-09T13:34:21.720Z,4.97
2023-01-09T13:36:52.840Z,4.47
2023-01-09T13:39:22.895Z,4.47
2023-01-09T13:42:13.222Z,4.17
2023-01-09T13:44:41.622Z,4.80
2023-01-09T13:47:20.035Z,6.50
2023-01-09T13:50:06.067Z,3.43
2023-01-09T13:52:37.255Z,6.43
2023-01-09T13:55:30.226Z,3.43
2023-01-09T13:58:25.916Z,3.80
2023-01-09T14:01:27.378Z,3.77
2023-01-09T14:04:38.277Z,4.57
2023-01-09T14:07:20.338Z,4.97
2023-01-09T14:09:51.917Z,3.57
2023-01-09T14:12:21.551Z,3.77
2023-01-09T14:14:51.785Z,3.23
2023-01-09T14:17:28.385Z,5.17
2023-01-09T14:20:00.338Z,3.60
2023-01-09T14:22:30.532Z,2.80
2023-01-09T14:25:05.615Z,5.20
2023-01-09T14:28:08.367Z,4.47
2023-01-09T14:30:40.109Z,4.67
2023-01-09T14:33:27.605Z,4.47
2023-01-09T14:36:06.563Z,3.13
2023-01-09T14:38:37.157Z,4.77
2023-01-09T14:41:10.799Z,6.20
2023-01-09T14:43:58.123Z,7.27
2023-01-09T14:46:30.925Z,3.60
2023-01-09T14:49:07.056Z,6.87
2023-01-09T14:51:43.771Z,4.23
2023-01-09T14:54:25.262Z,4.73
2023-01-09T14:56:54.107Z,5.37
2023-01-09T14:59:21.972Z,5.40
2023-01-09T15:01:55.411Z,3.50
2023-01-09T15:04:35.783Z,5.80
2023-01-09T15:07:07.004Z,7.20
2023-01-09T15:09:44.315Z,4.47
2023-01-09T15:12:19.482Z,3.60
2023-01-09T15:14:51.526Z,6.17
2023-01-09T15:17:22.551Z,8.50
2023-01-09T15:19:50.578Z,4.60
2023-01-09T15:22:26.367Z,4.53
2023-01-09T15:24:54.338Z,5.37
2023-01-09T15:27:23.349Z,5.23
2023-01-09T15:29:51.507Z,4.63
2023-01-09T15:32:25.133Z,7.23
2023-01-09T15:34:54.667Z,6.77
2023-01-09T15:37:29.662Z,5.50
2023-01-09T15:39:59.007Z,5.17
2023-01-09T15:42:47.314Z,7.07
2023-01-09T15:45:26.080Z,5.07
2023-01-09T15:47:54.705Z,6.60
2023-01-09T15:50:28.421Z,3.57
2023-01-09T15:52:58.116Z,4.67
2023-01-09T15:55:35.203Z,4.17
2023-01-09T15:58:04.257Z,5.53
2023-01-09T16:00:41.976Z,7.97
2023-01-09T16:03:23.154Z,6.07
2023-01-09T16:05:53.957Z,6.03
2023-01-09T16:08:26.870Z,9.77
2023-01-09T16:10:57.191Z,6.27
2023-01-09T16:13:27.901Z,4.43
2023-01-09T16:15:57.455Z,8.20
2023-01-09T16:18:31.863Z,6.90
2023-01-09T16:21:21.867Z,6.20
2023-01-09T16:23:57.418Z,5.53
2023-01-09T16:26:27.244Z,2.93
2023-01-09T16:28:55.565Z,5.80
2023-01-09T16:31:26.570Z,4.17
2023-01-09T16:34:05.873Z,4.43
2023-01-09T16:36:36.150Z,5.23
2023-01-09T16:39:05.907Z,6.13
2023-01-09T16:41:51.314Z,6.67
2023-01-09T16:44:19.451Z,5.10
2023-01-09T16:46:48.828Z,5.33
2023-01-09T16:49:19.637Z,8.13
2023-01-09T16:51:48.461Z,6.73
2023-01-09T16:54:18.141Z,5.77
2023-01-09T16:56:51.756Z,6.53
2023-01-09T16:59:21.600Z,3.13
2023-01-09T17:01:49.601Z,7.23
2023-01-09T17:04:20.031Z,6.60
2023-01-09T17:06:49.551Z,5.50
2023-01-09T17:09:23.158Z,6.13
2023-01-09T17:11:52.034Z,5.37
2023-01-09T17:14:19.911Z,6.17
2023-01-09T17:16:47.888Z,4.47
2023-01-09T17:19:19.296Z,4.80
2023-01-09T17:21:47.368Z,7.63
2023-01-09T17:24:33.921Z,5.67
2023-01-09T17:27:21.749Z,7.20
2023-01-09T17:29:49.740Z,4.67
2023-01-09T17:32:18.671Z,7.97
2023-01-09T17:34:46.490Z,7.40
2023-01-09T17:37:16.491Z,6.10
2023-01-09T17:39:44.466Z,5.87
2023-01-09T17:42:13.799Z,7.30
2023-01-09T17:44:41.688Z,7.33
2023-01-09T17:47:15.212Z,8.43
2023-01-09T17:49:43.256Z,8.33
2023-01-09T17:52:11.178Z,9.93
2023-01-09T17:54:38.961Z,10.23
2023-01-09T17:57:07.809Z,9.70
2023-01-09T17:59:37.061Z,12.50
2023-01-09T18:02:04.975Z,8.63
2023-01-09T18:04:32.853Z,10.90
2023-01-09T18:07:00.654Z,10.93
2023-01-09T18:09:28.512Z,11.57
2023-01-09T18:11:56.558Z,9.17
2023-01-09T18:14:24.510Z,10.60
2023-01-09T18:16:53.795Z,10.83
2023-01-09T18:19:21.666Z,12.40
2023-01-09T18:21:49.499Z,14.27
2023-01-09T18:24:17.477Z,12.30
2023-01-09T18:26:45.310Z,9.70
2023-01-09T18:29:13.921Z,11.40
2023-01-09T18:31:41.981Z,9.33
2023-01-09T18:34:11.307Z,10.40
2023-01-09T18:36:39.520Z,9.50
2023-01-09T18:39:08.739Z,9.80
2023-01-09T18:41:36.621Z,6.53
2023-01-09T18:44:07.330Z,10.23
2023-01-09T18:56:48.419Z,4.90
2023-01-09T18:59:17.659Z,6.83
2023-01-09T19:01:45.378Z,3.47
2023-01-09T19:04:13.236Z,3.60
2023-01-09T19:06:41.090Z,5.57
2023-01-09T19:09:09.255Z,3.23
2023-01-09T19:11:37.034Z,5.07
2023-01-09T19:14:04.856Z,5.27
2023-01-09T19:16:33.993Z,5.17
2023-01-09T19:19:02.744Z,4.27
2023-01-09T19:21:30.679Z,5.07
2023-01-09T19:23:58.781Z,5.33
2023-01-09T19:26:28.781Z,4.50
2023-01-09T19:28:57.592Z,6.33
2023-01-09T19:31:28.464Z,4.90
2023-01-09T19:33:58.501Z,4.53
2023-01-09T19:36:26.923Z,4.80
2023-01-09T19:38:57.629Z,6.33
2023-01-09T19:41:25.365Z,5.57
2023-01-09T19:43:53.182Z,8.57
2023-01-09T19:46:23.046Z,8.70
2023-01-09T19:48:51.893Z,7.87
2023-01-09T19:51:22.494Z,6.40
2023-01-09T19:53:53.669Z,7.63
2023-01-09T19:56:23.426Z,7.13
2023-01-09T19:58:53.450Z,6.57
2023-01-09T20:01:24.609Z,8.40
2023-01-09T20:03:53.233Z,9.17
2023-01-09T20:06:24.361Z,7.53
2023-01-09T20:08:54.805Z,6.97
2023-01-09T20:11:23.463Z,7.07
2023-01-09T20:13:51.890Z,11.27
2023-01-09T20:16:22.039Z,7.43
2023-01-09T20:18:50.096Z,8.33
2023-01-09T20:21:21.646Z,9.67
2023-01-09T20:23:51.073Z,8.20
2023-01-09T20:26:18.880Z,7.97
2023-01-09T20:28:47.697Z,8.40
2023-01-09T20:31:17.423Z,11.60
2023-01-09T20:33:46.860Z,11.00
2023-01-09T20:36:15.183Z,11.37
2023-01-09T20:38:43.664Z,12.93
2023-01-09T20:41:22.607Z,12.07
2023-01-09T20:43:50.663Z,12.90
2023-01-09T20:46:19.164Z,10.40
2023-01-09T20:48:46.995Z,11.23
2023-01-09T20:51:15.023Z,11.37
2023-01-09T20:53:45.191Z,13.17
2023-01-09T20:56:15.007Z,14.07
2023-01-09T20:58:43.208Z,17.30
2023-01-09T21:01:12.683Z,15.73
2023-01-09T21:03:41.120Z,16.03
2023-01-09T21:06:11.217Z,16.17
2023-01-09T21:08:39.535Z,16.30
2023-01-09T21:11:07.274Z,15.83
2023-01-09T21:13:36.390Z,14.53
2023-01-09T21:16:08.262Z,12.63
2023-01-09T21:18:37.746Z,12.93
2023-01-09T21:21:06.589Z,14.80
2023-01-09T21:23:34.621Z,14.67
2023-01-09T21:26:02.932Z,15.40
2023-01-09T21:28:31.709Z,14.87
2023-01-09T21:31:00.877Z,13.13
2023-01-09T21:33:28.764Z,11.30
2023-01-09T21:35:57.787Z,12.87
2023-01-09T21:38:27.001Z,15.83
2023-01-09T21:40:55.386Z,17.27
2023-01-09T21:43:44.742Z,14.40
2023-01-09T21:46:37.846Z,16.70
2023-01-09T21:49:06.749Z,17.27
2023-01-09T21:51:38.809Z,13.03
2023-01-09T21:54:06.822Z,15.10
2023-01-09T21:56:34.845Z,10.97
2023-01-09T21:59:03.103Z,13.00
2023-01-09T22:01:33.650Z,10.93
2023-01-09T22:04:01.798Z,14.13
2023-01-09T22:06:29.739Z,11.87
2023-01-09T22:08:57.680Z,12.00
2023-01-09T22:11:25.647Z,11.67
2023-01-09T22:13:54.435Z,11.43
2023-01-09T22:16:24.381Z,13.87
2023-01-09T22:18:54.334Z,14.93
2023-01-09T22:21:23.290Z,15.37
2023-01-09T22:23:51.398Z,14.60
2023-01-09T22:26:19.983Z,14.90
2023-01-09T22:28:48.621Z,11.30
2023-01-09T22:31:19.814Z,11.83
2023-01-09T22:33:51.310Z,12.93
2023-01-09T22:36:21.017Z,14.63
2023-01-09T22:38:48.905Z,16.27
2023-01-09T22:41:16.850Z,15.93
2023-01-09T22:43:44.833Z,16.17
2023-01-09T22:46:12.801Z,10.13
2023-01-09T22:48:42.060Z,14.67
2023-01-09T22:51:15.157Z,16.37
2023-01-09T22:53:44.483Z,19.07
2023-01-09T22:56:15.260Z,17.97
2023-01-09T22:58:43.267Z,15.10
2023-01-09T23:01:12.497Z,16.83
2023-01-09T23:03:41.225Z,15.57
2023-01-09T23:06:12.712Z,19.93
2023-01-09T23:08:41.487Z,17.07
2023-01-09T23:11:13.041Z,17.17
2023-01-09T23:13:40.920Z,22.00
2023-01-09T23:16:09.364Z,19.03
2023-01-09T23:18:37.240Z,15.30
2023-01-09T23:21:06.129Z,18.07
2023-01-09T23:23:34.273Z,18.30
2023-01-09T23:26:04.754Z,17.30
2023-01-09T23:28:34.137Z,16.53
2023-01-09T23:31:02.079Z,14.17
2023-01-09T23:33:30.085Z,17.27
2023-01-09T23:35:58.567Z,16.93
2023-01-09T23:38:26.399Z,18.47
2023-01-09T23:40:57.933Z,15.90
2023-01-09T23:43:24.877Z,15.93
2023-01-09T23:45:54.146Z,18.13
2023-01-09T23:48:22.115Z,14.37
2023-01-09T23:50:52.004Z,15.20
2023-01-09T23:53:20.963Z,16.33
2023-01-09T23:55:49.050Z,14.33
2023-01-09T23:58:17.020Z,17.60
